createdAt,value
2023-02-05T00:01:30.911Z,95031.50
2023-02-05T00:03:57.556Z,95040.19
2023-02-05T00:06:24.454Z,95031.75
2023-02-05T00:08:51.149Z,95058.53
2023-02-05T00:11:17.910Z,94990.31
2023-02-05T00:13:44.984Z,95044.38
2023-02-05T00:16:15.561Z,95028.59
2023-02-05T00:18:42.750Z,95050.41
2023-02-05T00:21:10.623Z,95014.03
2023-02-05T00:23:37.420Z,94986.00
2023-02-05T00:26:05.317Z,94904.88
2023-02-05T00:28:33.499Z,95052.28
2023-02-05T00:31:00.495Z,95069.31
2023-02-05T00:33:27.694Z,95035.38
2023-02-05T00:35:54.637Z,95087.28
2023-02-05T00:38:21.420Z,95063.38
2023-02-05T00:40:48.080Z,95088.72
2023-02-05T00:43:14.671Z,95079.50
2023-02-05T00:45:41.355Z,95060.44
2023-02-05T00:48:08.154Z,95059.78
2023-02-05T00:50:35.171Z,95094.06
2023-02-05T00:53:02.079Z,95046.03
2023-02-05T00:55:28.719Z,95014.34
2023-02-05T00:57:55.602Z,95070.66
2023-02-05T01:00:22.841Z,95052.31
2023-02-05T01:02:49.567Z,94990.22
2023-02-05T01:05:16.412Z,95039.78
2023-02-05T01:07:43.128Z,94946.47
2023-02-05T01:10:10.097Z,94980.88
2023-02-05T01:12:36.931Z,95072.88
2023-02-05T01:15:08.801Z,95091.94
2023-02-05T01:17:35.608Z,94949.88
2023-02-05T01:20:02.210Z,95024.53
2023-02-05T01:22:28.929Z,95095.06
2023-02-05T01:24:55.542Z,95067.47
2023-02-05T01:27:22.234Z,95085.50
2023-02-05T01:29:48.773Z,95071.88
2023-02-05T01:32:15.437Z,95083.00
2023-02-05T01:34:42.095Z,95089.59
2023-02-05T01:37:08.752Z,95098.84
2023-02-05T01:39:37.362Z,95089.88
2023-02-05T01:42:25.524Z,95098.72
2023-02-05T01:45:23.237Z,95105.56
2023-02-05T01:47:54.963Z,95111.34
2023-02-05T01:50:26.456Z,95112.53
2023-02-05T01:52:53.979Z,95121.28
2023-02-05T01:55:21.503Z,95115.16
2023-02-05T01:57:50.270Z,95119.34
2023-02-05T02:00:16.972Z,95121.16
2023-02-05T02:02:44.285Z,95122.28
2023-02-05T02:05:14.020Z,95119.47
2023-02-05T02:07:41.486Z,95128.66
2023-02-05T02:10:10.853Z,95127.94
2023-02-05T02:12:41.039Z,95142.72
2023-02-05T02:15:13.108Z,95118.34
2023-02-05T02:17:42.328Z,95140.00
2023-02-05T02:20:21.626Z,95135.09
2023-02-05T02:23:14.502Z,95139.75
2023-02-05T02:25:44.939Z,95147.63
2023-02-05T02:28:30.049Z,95126.13
2023-02-05T02:31:29.402Z,95127.22
2023-02-05T02:34:13.280Z,95121.03
2023-02-05T02:37:22.999Z,95152.25
2023-02-05T02:40:06.148Z,95129.69
2023-02-05T02:42:39.788Z,95133.88
2023-02-05T02:45:10.022Z,95131.56
2023-02-05T02:47:42.352Z,95145.09
2023-02-05T02:50:23.253Z,95116.28
2023-02-05T02:52:55.615Z,95135.63
2023-02-05T02:55:23.342Z,95143.25
2023-02-05T02:57:52.597Z,95151.44
2023-02-05T03:00:26.445Z,95128.75
2023-02-05T03:03:00.114Z,95130.88
2023-02-05T03:05:28.769Z,95159.13
2023-02-05T03:08:14.790Z,95147.66
2023-02-05T03:10:47.816Z,95166.31
2023-02-05T03:13:14.815Z,95149.06
2023-02-05T03:15:43.951Z,95155.38
2023-02-05T03:18:11.631Z,95162.88
2023-02-05T03:20:52.853Z,95149.34
2023-02-05T03:23:19.540Z,95175.13
2023-02-05T03:25:46.168Z,95153.00
2023-02-05T03:28:13.682Z,95165.59
2023-02-05T03:31:13.705Z,95149.06
2023-02-05T03:33:55.792Z,95173.44
2023-02-05T03:36:36.876Z,95176.94
2023-02-05T03:39:27.005Z,95157.84
2023-02-05T03:42:29.909Z,95169.66
2023-02-05T03:45:16.884Z,95191.69
2023-02-05T03:47:49.609Z,95157.91
2023-02-05T03:50:30.373Z,95153.38
2023-02-05T03:53:49.233Z,95178.59
2023-02-05T03:56:25.789Z,95175.13
2023-02-05T03:58:56.627Z,95184.06
2023-02-05T04:01:24.896Z,95161.88
2023-02-05T04:03:51.791Z,95195.06
2023-02-05T04:06:18.404Z,95193.00
2023-02-05T04:08:45.125Z,95192.81
2023-02-05T04:11:12.192Z,95191.66
2023-02-05T04:13:38.768Z,95195.38
2023-02-05T04:16:05.807Z,95211.75
2023-02-05T04:18:32.505Z,95212.16
2023-02-05T04:21:00.067Z,95175.88
2023-02-05T04:23:26.666Z,95188.41
2023-02-05T04:25:55.210Z,95195.38
2023-02-05T04:28:21.900Z,95185.44
2023-02-05T04:30:48.551Z,95201.69
2023-02-05T04:33:15.356Z,95186.38
2023-02-05T04:35:41.979Z,95209.66
2023-02-05T04:38:08.686Z,95220.16
2023-02-05T04:40:35.274Z,95211.78
2023-02-05T04:43:01.968Z,95199.00
2023-02-05T04:45:31.195Z,95226.66
2023-02-05T04:47:59.560Z,95202.19
2023-02-05T04:50:27.474Z,95211.13
2023-02-05T04:52:54.389Z,95217.50
2023-02-05T04:55:21.233Z,95227.16
2023-02-05T04:57:47.897Z,95227.25
2023-02-05T05:00:15.296Z,95235.00
2023-02-05T05:02:41.897Z,95240.75
2023-02-05T05:05:08.885Z,95237.69
2023-02-05T05:07:35.596Z,95243.50
2023-02-05T05:10:02.190Z,95235.38
2023-02-05T05:12:28.850Z,95217.91
2023-02-05T05:14:56.030Z,95228.44
2023-02-05T05:17:22.603Z,95243.00
2023-02-05T05:19:49.197Z,95255.34
2023-02-05T05:22:15.888Z,95253.91
2023-02-05T05:24:42.481Z,95243.25
2023-02-05T05:27:09.030Z,95251.69
2023-02-05T05:29:35.770Z,95254.69
2023-02-05T05:32:02.531Z,95267.25
2023-02-05T05:34:29.148Z,95258.13
2023-02-05T05:36:55.762Z,95274.25
2023-02-05T05:39:41.093Z,95270.53
2023-02-05T05:42:28.568Z,95267.81
2023-02-05T05:44:55.316Z,95285.72
2023-02-05T05:47:22.125Z,95289.63
2023-02-05T05:49:48.775Z,95249.88
2023-02-05T05:52:15.308Z,95291.72
2023-02-05T05:54:41.973Z,95293.25
2023-02-05T05:57:08.757Z,95268.94
2023-02-05T05:59:35.432Z,95287.03
2023-02-05T06:02:03.411Z,95286.78
2023-02-05T06:04:30.416Z,95306.25
2023-02-05T06:06:57.252Z,95289.34
2023-02-05T06:09:24.134Z,95319.78
2023-02-05T06:11:50.939Z,95321.88
2023-02-05T06:14:17.724Z,95316.47
2023-02-05T06:16:44.269Z,95318.31
2023-02-05T06:19:10.869Z,95322.56
2023-02-05T06:21:37.552Z,95327.59
2023-02-05T06:24:04.328Z,95336.97
2023-02-05T06:26:34.128Z,95334.03
2023-02-05T06:29:03.372Z,95334.16
2023-02-05T06:31:33.301Z,95322.13
2023-02-05T06:34:01.326Z,95343.13
2023-02-05T06:36:27.953Z,95345.06
2023-02-05T06:38:54.530Z,95349.28
2023-02-05T06:41:21.092Z,95343.03
2023-02-05T06:43:47.756Z,95356.53
2023-02-05T06:46:14.453Z,95364.50
2023-02-05T06:48:41.059Z,95373.41
2023-02-05T06:51:07.703Z,95369.63
2023-02-05T06:53:34.412Z,95374.47
2023-02-05T06:56:01.128Z,95358.00
2023-02-05T06:58:27.796Z,95388.56
2023-02-05T07:00:54.486Z,95366.94
2023-02-05T07:03:21.242Z,95352.88
2023-02-05T07:05:47.849Z,95369.13
2023-02-05T07:08:14.604Z,95391.25
2023-02-05T07:10:41.358Z,95399.50
2023-02-05T07:13:08.093Z,95408.03
2023-02-05T07:15:38.257Z,95401.03
2023-02-05T07:18:05.157Z,95399.38
2023-02-05T07:20:32.024Z,95399.41
2023-02-05T07:22:58.690Z,95401.88
2023-02-05T07:25:25.411Z,95409.28
2023-02-05T07:27:52.092Z,95402.16
2023-02-05T07:30:18.781Z,95405.03
2023-02-05T07:32:45.534Z,95425.91
2023-02-05T07:35:12.337Z,95431.91
2023-02-05T07:37:39.529Z,95435.66
2023-02-05T07:40:06.808Z,95420.97
2023-02-05T07:42:33.417Z,95425.16
2023-02-05T07:44:59.965Z,95432.50
2023-02-05T07:47:26.603Z,95433.63
2023-02-05T07:49:53.225Z,95432.56
2023-02-05T07:52:19.813Z,95417.34
2023-02-05T07:54:46.424Z,95428.56
2023-02-05T07:57:13.171Z,95453.84
2023-02-05T07:59:39.823Z,95439.03
2023-02-05T08:02:06.409Z,95455.19
2023-02-05T08:04:33.363Z,95442.97
2023-02-05T08:07:00.097Z,95447.53
2023-02-05T08:09:26.746Z,95456.72
2023-02-05T08:11:53.376Z,95446.00
2023-02-05T08:14:20.016Z,95442.03
2023-02-05T08:16:46.720Z,95464.16
2023-02-05T08:19:17.889Z,95460.47
2023-02-05T08:21:45.011Z,95472.53
2023-02-05T08:24:11.651Z,95461.72
2023-02-05T08:26:38.376Z,95475.13
2023-02-05T08:29:05.130Z,95475.59
2023-02-05T08:31:31.725Z,95450.66
2023-02-05T08:34:00.174Z,95467.72
2023-02-05T08:36:26.916Z,95485.34
2023-02-05T08:38:53.592Z,95481.94
2023-02-05T08:41:20.163Z,95481.97
2023-02-05T08:43:49.645Z,95492.88
2023-02-05T08:46:24.586Z,95476.31
2023-02-05T08:48:51.516Z,95512.09
2023-02-05T08:51:19.877Z,95503.47
2023-02-05T08:53:49.867Z,95497.00
2023-02-05T08:56:19.895Z,95508.22
2023-02-05T08:58:46.821Z,95510.25
2023-02-05T09:01:17.007Z,95513.53
2023-02-05T09:03:44.040Z,95512.34
2023-02-05T09:06:13.939Z,95517.44
2023-02-05T09:08:40.819Z,95525.75
2023-02-05T09:11:08.279Z,95527.50
2023-02-05T09:13:35.145Z,95522.66
2023-02-05T09:16:02.082Z,95530.69
2023-02-05T09:18:28.768Z,95522.22
2023-02-05T09:20:55.519Z,95535.91
2023-02-05T09:23:22.495Z,95517.47
2023-02-05T09:25:49.290Z,95522.94
2023-02-05T09:28:16.024Z,95527.91
2023-02-05T09:30:45.250Z,95540.09
2023-02-05T09:33:12.672Z,95555.56
2023-02-05T09:35:39.456Z,95535.91
2023-02-05T09:38:06.235Z,95540.41
2023-02-05T09:40:40.326Z,95539.22
2023-02-05T09:43:32.745Z,95545.59
2023-02-05T09:46:21.560Z,95551.13
2023-02-05T09:49:06.629Z,95549.75
2023-02-05T09:51:42.348Z,95553.94
2023-02-05T09:54:20.043Z,95551.69
2023-02-05T09:56:48.455Z,95553.56
2023-02-05T09:59:19.461Z,95548.69
2023-02-05T10:02:35.297Z,95546.91
2023-02-05T10:05:02.664Z,95540.81
2023-02-05T10:07:55.046Z,95547.66
2023-02-05T10:10:34.776Z,95540.41
2023-02-05T10:13:03.994Z,95536.81
2023-02-05T10:15:47.837Z,95528.66
2023-02-05T10:18:32.904Z,95541.19
2023-02-05T10:21:05.539Z,95540.78
2023-02-05T10:23:58.976Z,95540.69
2023-02-05T10:26:36.751Z,95551.16
2023-02-05T10:29:09.560Z,95551.56
2023-02-05T10:31:53.854Z,95548.56
2023-02-05T10:34:20.517Z,95545.06
2023-02-05T10:36:53.480Z,95524.38
2023-02-05T10:39:25.455Z,95538.94
2023-02-05T10:42:17.315Z,95543.59
2023-02-05T10:44:46.454Z,95540.00
2023-02-05T10:47:22.635Z,95555.22
2023-02-05T10:49:57.040Z,95547.16
2023-02-05T10:52:24.037Z,95534.38
2023-02-05T10:54:51.125Z,95506.63
2023-02-05T10:57:20.636Z,95534.66
2023-02-05T10:59:59.592Z,95540.25
2023-02-05T11:02:33.519Z,95536.00
2023-02-05T11:05:04.229Z,95534.91
2023-02-05T11:07:44.459Z,95535.31
2023-02-05T11:10:23.076Z,95543.81
2023-02-05T11:13:20.432Z,95539.53
2023-02-05T11:15:57.140Z,95523.22
2023-02-05T11:18:30.653Z,95528.56
2023-02-05T11:21:02.547Z,95542.69
2023-02-05T11:23:39.123Z,95539.34
2023-02-05T11:26:23.599Z,95530.25
2023-02-05T11:28:50.703Z,95530.69
2023-02-05T11:31:34.867Z,95513.66
2023-02-05T11:34:07.762Z,95529.22
2023-02-05T11:36:36.853Z,95517.38
2023-02-05T11:39:05.599Z,95533.28
2023-02-05T11:41:48.326Z,95525.81
2023-02-05T11:44:20.412Z,95522.59
2023-02-05T11:46:47.945Z,95509.34
2023-02-05T11:49:22.580Z,95535.53
2023-02-05T11:51:54.880Z,95510.31
2023-02-05T11:54:32.567Z,95535.97
2023-02-05T11:57:29.539Z,95544.81
2023-02-05T12:00:01.192Z,95488.81
2023-02-05T12:02:30.610Z,95539.56
2023-02-05T12:05:21.913Z,95525.03
2023-02-05T12:08:26.147Z,95531.88
2023-02-05T12:11:04.436Z,95489.41
2023-02-05T12:13:49.308Z,95525.63
2023-02-05T12:16:22.385Z,95519.66
2023-02-05T12:19:15.280Z,95529.78
2023-02-05T12:21:52.104Z,95413.44
2023-02-05T12:25:06.565Z,95531.06
2023-02-05T12:28:15.993Z,95517.28
2023-02-05T12:31:16.594Z,95538.47
2023-02-05T12:34:09.993Z,95540.50
2023-02-05T12:36:56.821Z,95435.06
2023-02-05T12:39:44.573Z,95511.66
2023-02-05T12:42:33.150Z,95535.22
2023-02-05T12:45:28.375Z,95532.41
2023-02-05T12:48:14.967Z,95461.31
2023-02-05T12:51:09.558Z,95420.31
2023-02-05T12:54:25.688Z,95492.25
2023-02-05T12:56:58.463Z,95523.88
2023-02-05T12:59:39.284Z,95521.50
2023-02-05T13:02:29.382Z,95470.78
2023-02-05T13:05:14.441Z,95526.16
2023-02-05T13:07:45.682Z,95521.88
2023-02-05T13:10:23.285Z,95502.75
2023-02-05T13:12:54.929Z,95499.13
2023-02-05T13:15:31.697Z,95522.72
2023-02-05T13:18:03.967Z,95532.13
2023-02-05T13:21:00.591Z,95470.56
2023-02-05T13:23:48.691Z,95477.88
2023-02-05T13:26:36.728Z,95493.56
2023-02-05T13:29:10.040Z,95395.63
2023-02-05T13:32:10.690Z,95501.53
2023-02-05T13:34:41.866Z,95481.63
2023-02-05T13:37:19.856Z,95444.94
2023-02-05T13:40:21.932Z,95549.09
2023-02-05T13:43:03.799Z,95549.06
2023-02-05T13:45:52.445Z,95544.16
2023-02-05T13:48:43.582Z,95548.09
2023-02-05T13:51:28.674Z,95529.25
2023-02-05T13:54:18.107Z,95554.28
2023-02-05T13:56:47.670Z,95544.47
2023-02-05T13:59:43.712Z,95549.94
2023-02-05T14:02:40.446Z,95545.31
2023-02-05T14:05:08.738Z,95528.31
2023-02-05T14:07:47.887Z,95557.75
2023-02-05T14:10:28.411Z,95559.56
2023-02-05T14:13:11.966Z,95556.91
2023-02-05T14:15:41.681Z,95557.28
2023-02-05T14:18:12.702Z,95523.84
2023-02-05T14:20:44.684Z,95517.88
2023-02-05T14:23:37.607Z,95429.88
2023-02-05T14:26:04.207Z,95566.88
2023-02-05T14:28:30.759Z,95562.13
2023-02-05T14:31:05.900Z,95553.84
2023-02-05T14:33:40.730Z,95536.69
2023-02-05T14:36:24.282Z,95575.56
2023-02-05T14:38:50.919Z,95573.53
2023-02-05T14:41:27.848Z,95578.56
2023-02-05T14:44:03.663Z,95565.47
2023-02-05T14:46:39.954Z,95566.19
2023-02-05T14:49:20.785Z,95540.59
2023-02-05T14:51:59.395Z,95567.56
2023-02-05T14:54:44.300Z,95571.28
2023-02-05T14:57:35.452Z,95579.03
2023-02-05T15:00:06.032Z,95574.06
2023-02-05T15:03:10.122Z,95582.25
2023-02-05T15:05:39.699Z,95572.47
2023-02-05T15:08:09.019Z,95584.13
2023-02-05T15:11:14.135Z,95578.38
2023-02-05T15:13:41.353Z,95545.00
2023-02-05T15:16:17.278Z,95591.25
2023-02-05T15:18:45.739Z,95593.75
2023-02-05T15:21:26.628Z,95569.09
2023-02-05T15:24:13.110Z,95572.75
2023-02-05T15:26:45.017Z,95602.94
2023-02-05T15:29:20.481Z,95603.78
2023-02-05T15:31:52.229Z,95602.16
2023-02-05T15:34:30.757Z,95608.75
2023-02-05T15:37:09.562Z,95607.63
2023-02-05T15:39:42.800Z,95604.66
2023-02-05T15:42:13.138Z,95604.44
2023-02-05T15:44:40.119Z,95576.19
2023-02-05T15:47:18.688Z,95605.25
2023-02-05T15:49:48.966Z,95578.78
2023-02-05T15:52:23.303Z,95608.44
2023-02-05T15:54:53.082Z,95620.63
2023-02-05T15:57:23.651Z,95592.31
2023-02-05T15:59:52.606Z,95568.69
2023-02-05T16:02:29.889Z,95593.25
2023-02-05T16:05:16.387Z,95553.78
2023-02-05T16:07:44.753Z,95599.69
2023-02-05T16:10:22.210Z,95607.31
2023-02-05T16:13:05.125Z,95617.09
2023-02-05T16:15:38.811Z,95626.03
2023-02-05T16:18:12.361Z,95540.56
2023-02-05T16:20:43.568Z,95614.53
2023-02-05T16:23:22.741Z,95616.47
2023-02-05T16:25:59.945Z,95582.38
2023-02-05T16:28:47.199Z,95600.72
2023-02-05T16:31:20.711Z,95581.00
2023-02-05T16:33:50.556Z,95595.91
2023-02-05T16:36:23.712Z,95607.06
2023-02-05T16:38:53.023Z,95615.28
2023-02-05T16:41:22.652Z,95616.94
2023-02-05T16:43:51.804Z,95580.16
2023-02-05T16:46:29.515Z,95616.94
2023-02-05T16:49:23.861Z,95601.50
2023-02-05T16:51:50.413Z,95604.06
2023-02-05T16:54:29.553Z,95541.00
2023-02-05T16:57:04.663Z,95538.34
2023-02-05T16:59:53.814Z,95570.91
2023-02-05T17:02:35.509Z,95615.75
2023-02-05T17:05:06.476Z,95531.59
2023-02-05T17:07:34.715Z,95601.69
2023-02-05T17:10:21.575Z,95620.44
2023-02-05T17:12:53.003Z,95534.50
2023-02-05T17:15:19.601Z,95619.59
2023-02-05T17:17:55.449Z,95628.34
2023-02-05T17:20:28.083Z,95551.47
2023-02-05T17:23:00.959Z,95624.84
2023-02-05T17:25:29.246Z,95570.81
2023-02-05T17:27:56.521Z,95626.09
2023-02-05T17:30:23.520Z,95609.47
2023-02-05T17:32:51.165Z,95621.81
2023-02-05T17:35:22.154Z,95570.91
2023-02-05T17:37:49.400Z,95604.00
2023-02-05T17:40:16.428Z,95628.00
2023-02-05T17:42:46.061Z,95539.13
2023-02-05T17:45:20.281Z,95532.16
2023-02-05T17:47:47.119Z,95591.81
2023-02-05T17:50:14.561Z,95619.00
2023-02-05T17:52:41.208Z,95623.19
2023-02-05T17:55:11.287Z,95611.69
2023-02-05T17:57:38.118Z,95594.06
2023-02-05T18:00:05.333Z,95618.03
2023-02-05T18:02:32.199Z,95617.38
2023-02-05T18:04:58.932Z,95593.78
2023-02-05T18:07:42.841Z,95617.63
2023-02-05T18:10:13.641Z,95607.41
2023-02-05T18:12:40.285Z,95584.34
2023-02-05T18:15:07.894Z,95632.97
2023-02-05T18:17:34.601Z,95626.28
2023-02-05T18:20:01.408Z,95621.72
2023-02-05T18:22:28.179Z,95624.72
2023-02-05T18:24:54.843Z,95593.47
2023-02-05T18:27:21.555Z,95626.69
2023-02-05T18:29:48.272Z,95608.53
2023-02-05T18:32:15.061Z,95602.97
2023-02-05T18:34:41.740Z,95600.38
2023-02-05T18:37:08.535Z,95626.03
2023-02-05T18:39:35.156Z,95606.13
2023-02-05T18:42:01.772Z,95607.59
2023-02-05T18:44:28.380Z,95626.38
2023-02-05T18:46:55.465Z,95633.22
2023-02-05T18:49:22.342Z,95608.59
2023-02-05T18:51:48.993Z,95612.56
2023-02-05T18:54:15.676Z,95624.72
2023-02-05T18:56:42.443Z,95623.19
2023-02-05T18:59:14.171Z,95578.72
2023-02-05T19:01:41.314Z,95604.47
2023-02-05T19:04:14.500Z,95625.25
2023-02-05T19:06:42.968Z,95620.34
2023-02-05T19:09:10.631Z,95622.91
2023-02-05T19:11:41.059Z,95626.19
2023-02-05T19:14:11.133Z,95604.03
2023-02-05T19:16:39.565Z,95609.63
2023-02-05T19:19:06.609Z,95598.22
2023-02-05T19:21:33.340Z,95508.59
2023-02-05T19:24:05.801Z,95612.72
2023-02-05T19:26:35.143Z,95601.00
2023-02-05T19:29:05.135Z,95600.72
2023-02-05T19:31:34.233Z,95626.44
2023-02-05T19:34:01.609Z,95619.25
2023-02-05T19:36:29.230Z,95615.28
2023-02-05T19:38:55.968Z,95608.00
2023-02-05T19:41:26.377Z,95635.59
2023-02-05T19:43:58.698Z,95609.53
2023-02-05T19:46:28.473Z,95634.41
2023-02-05T19:48:55.993Z,95637.53
2023-02-05T19:51:22.935Z,95647.38
2023-02-05T19:53:49.662Z,95590.09
2023-02-05T19:56:18.950Z,95638.53
2023-02-05T19:58:48.796Z,95614.03
2023-02-05T20:01:19.734Z,95630.91
2023-02-05T20:03:46.820Z,95621.47
2023-02-05T20:06:15.944Z,95639.31
2023-02-05T20:08:44.438Z,95632.53
2023-02-05T20:11:11.775Z,95598.91
2023-02-05T20:13:39.487Z,95627.56
2023-02-05T20:16:10.679Z,95616.56
2023-02-05T20:18:38.579Z,95608.84
2023-02-05T20:21:10.067Z,95623.09
2023-02-05T20:23:37.343Z,95621.38
2023-02-05T20:26:05.478Z,95621.97
2023-02-05T20:28:34.702Z,95653.44
2023-02-05T20:31:20.336Z,95645.53
2023-02-05T20:33:50.000Z,95635.19
2023-02-05T20:36:16.612Z,95629.75
2023-02-05T20:38:43.382Z,95653.09
2023-02-05T20:41:12.494Z,95651.81
2023-02-05T20:43:39.348Z,95647.69
2023-02-05T20:46:07.025Z,95633.38
2023-02-05T20:48:34.380Z,95643.88
2023-02-05T20:51:09.237Z,95643.53
2023-02-05T20:53:36.134Z,95594.75
2023-02-05T20:56:05.584Z,95658.13
2023-02-05T20:58:33.049Z,95658.28
2023-02-05T21:01:07.143Z,95660.59
2023-02-05T21:03:34.576Z,95620.16
2023-02-05T21:06:01.660Z,95659.75
2023-02-05T21:08:28.802Z,95667.13
2023-02-05T21:10:55.571Z,95653.41
2023-02-05T21:13:22.257Z,95673.97
2023-02-05T21:15:58.233Z,95659.47
2023-02-05T21:18:26.460Z,95568.28
2023-02-05T21:20:53.473Z,95621.78
2023-02-05T21:23:20.959Z,95686.63
2023-02-05T21:25:48.108Z,95635.72
2023-02-05T21:28:15.143Z,95660.69
2023-02-05T21:30:43.212Z,95661.16
2023-02-05T21:33:09.911Z,95649.19
2023-02-05T21:35:39.744Z,95647.47
2023-02-05T21:38:06.408Z,95606.00
2023-02-05T21:40:33.874Z,95604.38
2023-02-05T21:43:00.857Z,95598.13
2023-02-05T21:45:27.561Z,95677.31
2023-02-05T21:47:54.211Z,95673.13
2023-02-05T21:50:21.352Z,95692.56
2023-02-05T21:52:48.017Z,95670.81
2023-02-05T21:55:14.705Z,95607.28
2023-02-05T21:57:41.318Z,95628.53
2023-02-05T22:00:08.439Z,95673.47
2023-02-05T22:02:35.093Z,95613.31
2023-02-05T22:05:01.701Z,95660.28
2023-02-05T22:07:28.736Z,95641.09
2023-02-05T22:09:55.529Z,95694.38
2023-02-05T22:12:22.245Z,95637.84
2023-02-05T22:14:49.142Z,95671.22
2023-02-05T22:17:15.935Z,95667.72
2023-02-05T22:19:43.199Z,95658.44
2023-02-05T22:22:09.974Z,95711.66
2023-02-05T22:24:36.653Z,95647.03
2023-02-05T22:27:03.736Z,95629.41
2023-02-05T22:29:30.464Z,95714.56
2023-02-05T22:31:57.267Z,95726.72
2023-02-05T22:34:24.570Z,95659.84
2023-02-05T22:36:51.370Z,95636.63
2023-02-05T22:39:18.069Z,95656.66
2023-02-05T22:41:44.914Z,95665.19
2023-02-05T22:44:12.239Z,95668.59
2023-02-05T22:46:42.580Z,95680.84
2023-02-05T22:49:12.189Z,95629.28
2023-02-05T22:51:40.466Z,95656.91
2023-02-05T22:54:09.260Z,95740.25
2023-02-05T22:56:37.102Z,95680.63
2023-02-05T22:59:04.005Z,95713.03
2023-02-05T23:01:35.414Z,95733.06
2023-02-05T23:04:04.680Z,95676.91
2023-02-05T23:06:36.162Z,95684.03
2023-02-05T23:09:12.520Z,95682.69
2023-02-05T23:11:39.438Z,95609.97
2023-02-05T23:14:07.484Z,95631.13
2023-02-05T23:16:38.537Z,95706.41
2023-02-05T23:19:09.169Z,95702.63
2023-02-05T23:21:37.941Z,95663.91
2023-02-05T23:24:05.320Z,95675.16
2023-02-05T23:26:39.380Z,95693.16
2023-02-05T23:29:07.818Z,95659.50
2023-02-05T23:31:35.976Z,95625.72
2023-02-05T23:34:04.400Z,95693.13
2023-02-05T23:36:31.543Z,95686.91
2023-02-05T23:38:58.532Z,95713.28
2023-02-05T23:41:37.714Z,95650.34
2023-02-05T23:44:22.462Z,95680.66
2023-02-05T23:46:50.427Z,95717.22
2023-02-05T23:49:21.798Z,95716.44
2023-02-05T23:51:49.990Z,95688.97
2023-02-05T23:54:16.729Z,95700.44
2023-02-05T23:56:43.536Z,95717.00
2023-02-05T23:59:12.087Z,95714.56
